sensor_id;sensor_type;location;lat;lon;timestamp;pressure;altitude;pressure_sealevel;temperature;humidity
46534;BME280;32260;52.008;4.752;2023-02-18T00:00:19;102299.66;;;11.91;72.75
46534;BME280;32260;52.008;4.752;2023-02-18T00:02:45;102304.94;;;11.88;72.81
46534;BME280;32260;52.008;4.752;2023-02-18T00:05:12;102304.06;;;11.83;73.06
46534;BME280;32260;52.008;4.752;2023-02-18T00:07:39;102299.66;;;11.74;73.73
46534;BME280;32260;52.008;4.752;2023-02-18T00:10:10;102288.16;;;11.74;73.08
46534;BME280;32260;52.008;4.752;2023-02-18T00:12:37;102284.63;;;11.72;73.31
46534;BME280;32260;52.008;4.752;2023-02-18T00:15:04;102284.63;;;11.69;73.15
46534;BME280;32260;52.008;4.752;2023-02-18T00:17:30;102281.97;;;11.67;73.65
46534;BME280;32260;52.008;4.752;2023-02-18T00:19:56;102288.19;;;11.68;73.06
46534;BME280;32260;52.008;4.752;2023-02-18T00:22:23;102287.31;;;11.64;73.51
46534;BME280;32260;52.008;4.752;2023-02-18T00:24:49;102281.97;;;11.55;73.56
46534;BME280;32260;52.008;4.752;2023-02-18T00:27:16;102283.78;;;11.46;74.40
46534;BME280;32260;52.008;4.752;2023-02-18T00:29:42;102273.16;;;11.43;74.23
46534;BME280;32260;52.008;4.752;2023-02-18T00:32:08;102274.03;;;11.47;74.22
46534;BME280;32260;52.008;4.752;2023-02-18T00:34:34;102269.59;;;11.47;74.61
46534;BME280;32260;52.008;4.752;2023-02-18T00:37:01;102262.53;;;11.45;74.74
46534;BME280;32260;52.008;4.752;2023-02-18T00:39:27;102263.41;;;11.47;74.54
46534;BME280;32260;52.008;4.752;2023-02-18T00:41:53;102253.69;;;11.41;74.59
46534;BME280;32260;52.008;4.752;2023-02-18T00:44:19;102254.59;;;11.29;74.81
46534;BME280;32260;52.008;4.752;2023-02-18T00:46:45;102244.84;;;11.39;74.53
46534;BME280;32260;52.008;4.752;2023-02-18T00:49:13;102249.28;;;11.36;75.07
46534;BME280;32260;52.008;4.752;2023-02-18T00:51:39;102253.69;;;11.41;74.71
46534;BME280;32260;52.008;4.752;2023-02-18T00:54:05;102252.81;;;11.38;74.98
46534;BME280;32260;52.008;4.752;2023-02-18T00:56:31;102252.81;;;11.39;74.27
46534;BME280;32260;52.008;4.752;2023-02-18T00:58:58;102251.06;;;11.37;74.69
46534;BME280;32260;52.008;4.752;2023-02-18T01:01:24;102250.13;;;11.42;75.09
46534;BME280;32260;52.008;4.752;2023-02-18T01:03:50;102242.19;;;11.47;75.34
46534;BME280;32260;52.008;4.752;2023-02-18T01:06:16;102251.91;;;11.48;75.15
46534;BME280;32260;52.008;4.752;2023-02-18T01:08:42;102247.47;;;11.48;74.66
46534;BME280;32260;52.008;4.752;2023-02-18T01:11:10;102245.72;;;11.51;75.00
46534;BME280;32260;52.008;4.752;2023-02-18T01:13:37;102249.25;;;11.51;74.79
46534;BME280;32260;52.008;4.752;2023-02-18T01:16:03;102240.41;;;11.52;75.00
46534;BME280;32260;52.008;4.752;2023-02-18T01:18:30;102238.66;;;11.53;75.15
46534;BME280;32260;52.008;4.752;2023-02-18T01:20:58;102230.69;;;11.49;75.10
46534;BME280;32260;52.008;4.752;2023-02-18T01:23:24;102235.97;;;11.56;74.97
46534;BME280;32260;52.008;4.752;2023-02-18T01:25:50;102226.25;;;11.53;74.91
46534;BME280;32260;52.008;4.752;2023-02-18T01:28:17;102225.34;;;11.59;75.24
46534;BME280;32260;52.008;4.752;2023-02-18T01:30:44;102225.38;;;11.49;75.68
46534;BME280;32260;52.008;4.752;2023-02-18T01:33:10;102217.38;;;11.59;75.02
46534;BME280;32260;52.008;4.752;2023-02-18T01:35:38;102220.03;;;11.62;75.03
46534;BME280;32260;52.008;4.752;2023-02-18T01:38:05;102212.06;;;11.63;74.76
46534;BME280;32260;52.008;4.752;2023-02-18T01:40:31;102219.16;;;11.64;75.01
46534;BME280;32260;52.008;4.752;2023-02-18T01:42:58;102218.28;;;11.64;74.92
46534;BME280;32260;52.008;4.752;2023-02-18T01:45:50;102220.91;;;11.70;75.42
46534;BME280;32260;52.008;4.752;2023-02-18T01:48:25;102212.06;;;11.68;75.23
46534;BME280;32260;52.008;4.752;2023-02-18T01:50:56;102204.09;;;11.65;75.73
46534;BME280;32260;52.008;4.752;2023-02-18T01:53:31;102203.22;;;11.64;75.72
46534;BME280;32260;52.008;4.752;2023-02-18T01:56:00;102195.25;;;11.63;75.76
46534;BME280;32260;52.008;4.752;2023-02-18T01:58:28;102192.59;;;11.66;75.47
46534;BME280;32260;52.008;4.752;2023-02-18T02:00:54;102197.91;;;11.64;76.11
46534;BME280;32260;52.008;4.752;2023-02-18T02:03:21;102191.69;;;11.67;75.25
46534;BME280;32260;52.008;4.752;2023-02-18T02:05:47;102181.09;;;11.62;75.99
46534;BME280;32260;52.008;4.752;2023-02-18T02:08:13;102185.50;;;11.63;76.35
46534;BME280;32260;52.008;4.752;2023-02-18T02:11:03;102180.19;;;11.73;75.77
46534;BME280;32260;52.008;4.752;2023-02-18T02:13:46;102177.50;;;11.76;76.30
46534;BME280;32260;52.008;4.752;2023-02-18T02:19:19;102148.28;;;11.77;76.11
46534;BME280;32260;52.008;4.752;2023-02-18T02:22:09;102139.44;;;11.80;75.93
46534;BME280;32260;52.008;4.752;2023-02-18T02:25:02;102135.03;;;11.74;76.04
46534;BME280;32260;52.008;4.752;2023-02-18T02:28:04;102133.25;;;11.78;76.58
46534;BME280;32260;52.008;4.752;2023-02-18T02:30:59;102125.25;;;11.81;76.60
46534;BME280;32260;52.008;4.752;2023-02-18T02:33:50;102119.06;;;11.82;75.92
46534;BME280;32260;52.008;4.752;2023-02-18T02:36:35;102104.94;;;11.78;76.47
46534;BME280;32260;52.008;4.752;2023-02-18T02:39:19;102101.41;;;11.76;76.67
46534;BME280;32260;52.008;4.752;2023-02-18T02:45:12;102089.00;;;11.74;77.40
46534;BME280;32260;52.008;4.752;2023-02-18T02:47:53;102081.09;;;11.68;77.01
46534;BME280;32260;52.008;4.752;2023-02-18T02:50:44;102083.66;;;11.80;76.47
46534;BME280;32260;52.008;4.752;2023-02-18T02:53:21;102066.91;;;11.76;76.54
46534;BME280;32260;52.008;4.752;2023-02-18T02:55:49;102068.75;;;11.60;76.75
46534;BME280;32260;52.008;4.752;2023-02-18T02:58:17;102067.84;;;11.63;76.80
46534;BME280;32260;52.008;4.752;2023-02-18T03:07:07;102065.19;;;11.61;76.90
46534;BME280;32260;52.008;4.752;2023-02-18T03:22:50;102043.13;;;11.52;77.07
46534;BME280;32260;52.008;4.752;2023-02-18T03:25:18;102043.13;;;11.52;77.59
46534;BME280;32260;52.008;4.752;2023-02-18T03:27:53;102041.34;;;11.51;77.18
46534;BME280;32260;52.008;4.752;2023-02-18T03:30:44;102028.94;;;11.56;76.90
46534;BME280;32260;52.008;4.752;2023-02-18T03:33:14;102017.47;;;11.49;77.43
46534;BME280;32260;52.008;4.752;2023-02-18T03:35:43;102007.72;;;11.54;77.47
46534;BME280;32260;52.008;4.752;2023-02-18T03:51:10;101997.06;;;11.60;77.42
46534;BME280;32260;52.008;4.752;2023-02-18T03:53:36;101997.06;;;11.59;77.54
46534;BME280;32260;52.008;4.752;2023-02-18T03:56:02;101986.47;;;11.56;77.76
46534;BME280;32260;52.008;4.752;2023-02-18T03:58:28;101986.50;;;11.53;77.98
46534;BME280;32260;52.008;4.752;2023-02-18T04:00:54;101985.56;;;11.58;77.95
46534;BME280;32260;52.008;4.752;2023-02-18T04:03:20;101979.44;;;11.48;78.39
46534;BME280;32260;52.008;4.752;2023-02-18T04:05:46;101986.44;;;11.59;77.89
46534;BME280;32260;52.008;4.752;2023-02-18T04:08:13;101987.34;;;11.56;77.82
46534;BME280;32260;52.008;4.752;2023-02-18T04:10:39;101976.72;;;11.56;78.19
46534;BME280;32260;52.008;4.752;2023-02-18T04:13:05;101975.84;;;11.57;77.76
46534;BME280;32260;52.008;4.752;2023-02-18T04:15:31;101986.47;;;11.56;77.70
46534;BME280;32260;52.008;4.752;2023-02-18T04:17:59;101975.88;;;11.54;78.85
46534;BME280;32260;52.008;4.752;2023-02-18T04:20:25;101973.19;;;11.57;78.04
46534;BME280;32260;52.008;4.752;2023-02-18T04:22:51;101959.88;;;11.59;78.13
46534;BME280;32260;52.008;4.752;2023-02-18T04:25:17;101971.41;;;11.59;78.34
46534;BME280;32260;52.008;4.752;2023-02-18T04:27:44;101972.28;;;11.61;77.91
46534;BME280;32260;52.008;4.752;2023-02-18T04:30:10;101964.34;;;11.58;78.48
46534;BME280;32260;52.008;4.752;2023-02-18T04:32:36;101962.59;;;11.54;78.81
46534;BME280;32260;52.008;4.752;2023-02-18T04:35:03;101969.63;;;11.58;78.52
46534;BME280;32260;52.008;4.752;2023-02-18T04:37:29;101966.06;;;11.64;78.06
46534;BME280;32260;52.008;4.752;2023-02-18T04:39:55;101951.03;;;11.64;78.35
46534;BME280;32260;52.008;4.752;2023-02-18T04:42:21;101961.63;;;11.66;78.08
46534;BME280;32260;52.008;4.752;2023-02-18T04:44:48;101952.75;;;11.70;78.26
46534;BME280;32260;52.008;4.752;2023-02-18T04:47:14;101947.44;;;11.69;78.33
46534;BME280;32260;52.008;4.752;2023-02-18T04:49:40;101940.34;;;11.75;78.46
46534;BME280;32260;52.008;4.752;2023-02-18T04:52:06;101936.88;;;11.61;78.58
46534;BME280;32260;52.008;4.752;2023-02-18T04:54:32;101920.94;;;11.64;79.32
46534;BME280;32260;52.008;4.752;2023-02-18T04:56:58;101929.81;;;11.60;79.18
46534;BME280;32260;52.008;4.752;2023-02-18T04:59:25;101931.56;;;11.64;78.85
46534;BME280;32260;52.008;4.752;2023-02-18T05:01:51;101916.50;;;11.64;78.89
46534;BME280;32260;52.008;4.752;2023-02-18T05:04:17;101930.63;;;11.73;79.19
46534;BME280;32260;52.008;4.752;2023-02-18T05:06:43;101922.59;;;11.77;78.57
46534;BME280;32260;52.008;4.752;2023-02-18T05:09:10;101933.22;;;11.79;78.63
46534;BME280;32260;52.008;4.752;2023-02-18T05:11:36;101930.50;;;11.87;78.40
46534;BME280;32260;52.008;4.752;2023-02-18T05:14:02;101924.34;;;11.83;78.72
46534;BME280;32260;52.008;4.752;2023-02-18T05:16:28;101926.94;;;11.86;78.80
46534;BME280;32260;52.008;4.752;2023-02-18T05:18:54;101928.78;;;11.81;78.58
46534;BME280;32260;52.008;4.752;2023-02-18T05:21:20;101921.66;;;11.88;78.50
46534;BME280;32260;52.008;4.752;2023-02-18T05:23:46;101924.34;;;11.83;78.83
46534;BME280;32260;52.008;4.752;2023-02-18T05:26:13;101926.09;;;11.84;77.98
46534;BME280;32260;52.008;4.752;2023-02-18T05:28:39;101911.91;;;11.87;78.27
46534;BME280;32260;52.008;4.752;2023-02-18T05:31:05;101916.38;;;11.80;78.65
46534;BME280;32260;52.008;4.752;2023-02-18T05:33:33;101903.16;;;11.74;78.46
46534;BME280;32260;52.008;4.752;2023-02-18T05:36:00;101896.00;;;11.82;78.62
46534;BME280;32260;52.008;4.752;2023-02-18T05:38:26;101912.00;;;11.79;78.47
46534;BME280;32260;52.008;4.752;2023-02-18T05:40:52;101905.75;;;11.83;78.70
46534;BME280;32260;52.008;4.752;2023-02-18T05:43:18;101895.06;;;11.89;77.98
46534;BME280;32260;52.008;4.752;2023-02-18T05:45:44;101903.97;;;11.85;78.37
46534;BME280;32260;52.008;4.752;2023-02-18T05:48:10;101898.63;;;11.91;78.47
46534;BME280;32260;52.008;4.752;2023-02-18T05:50:38;101898.56;;;11.94;77.98
46534;BME280;32260;52.008;4.752;2023-02-18T05:53:04;101899.50;;;11.87;77.90
46534;BME280;32260;52.008;4.752;2023-02-18T05:55:30;101892.38;;;11.95;78.34
46534;BME280;32260;52.008;4.752;2023-02-18T05:57:56;101899.47;;;11.96;78.14
46534;BME280;32260;52.008;4.752;2023-02-18T06:00:22;101898.63;;;11.88;78.16
46534;BME280;32260;52.008;4.752;2023-02-18T06:02:48;101888.03;;;11.85;78.04
46534;BME280;32260;52.008;4.752;2023-02-18T06:05:14;101892.38;;;11.94;77.57
46534;BME280;32260;52.008;4.752;2023-02-18T06:07:40;101896.84;;;11.87;77.59
46534;BME280;32260;52.008;4.752;2023-02-18T06:10:07;101883.69;;;11.76;78.00
46534;BME280;32260;52.008;4.752;2023-02-18T06:12:33;101874.75;;;11.85;77.93
46534;BME280;32260;52.008;4.752;2023-02-18T06:14:59;101881.84;;;11.83;78.11
46534;BME280;32260;52.008;4.752;2023-02-18T06:17:25;101895.13;;;11.80;77.58
46534;BME280;32260;52.008;4.752;2023-02-18T06:19:51;101879.22;;;11.80;77.68
46534;BME280;32260;52.008;4.752;2023-02-18T06:22:17;101877.44;;;11.80;77.66
46534;BME280;32260;52.008;4.752;2023-02-18T06:24:43;101877.47;;;11.79;77.69
46534;BME280;32260;52.008;4.752;2023-02-18T06:27:09;101876.53;;;11.80;77.58
46534;BME280;32260;52.008;4.752;2023-02-18T06:29:35;101871.25;;;11.81;77.51
46534;BME280;32260;52.008;4.752;2023-02-18T06:32:01;101869.50;;;11.76;77.76
46534;BME280;32260;52.008;4.752;2023-02-18T06:34:28;101866.84;;;11.77;77.32
46534;BME280;32260;52.008;4.752;2023-02-18T06:36:54;101868.69;;;11.71;77.50
46534;BME280;32260;52.008;4.752;2023-02-18T06:39:20;101874.81;;;11.77;76.81
46534;BME280;32260;52.008;4.752;2023-02-18T06:41:46;101881.00;;;11.78;77.03
46534;BME280;32260;52.008;4.752;2023-02-18T06:44:12;101864.19;;;11.79;76.71
46534;BME280;32260;52.008;4.752;2023-02-18T06:46:40;101868.59;;;11.80;76.76
46534;BME280;32260;52.008;4.752;2023-02-18T06:49:06;101875.66;;;11.84;76.55
46534;BME280;32260;52.008;4.752;2023-02-18T06:51:32;101882.69;;;11.88;76.58
46534;BME280;32260;52.008;4.752;2023-02-18T06:53:58;101880.94;;;11.86;76.68
46534;BME280;32260;52.008;4.752;2023-02-18T06:56:24;101872.06;;;11.91;76.12
46534;BME280;32260;52.008;4.752;2023-02-18T06:58:50;101877.44;;;11.82;75.94
46534;BME280;32260;52.008;4.752;2023-02-18T07:01:16;101875.66;;;11.81;76.33
46534;BME280;32260;52.008;4.752;2023-02-18T07:03:42;101870.31;;;11.89;75.70
46534;BME280;32260;52.008;4.752;2023-02-18T07:06:08;101881.78;;;11.89;75.67
46534;BME280;32260;52.008;4.752;2023-02-18T07:08:35;101871.31;;;11.72;75.28
46534;BME280;32260;52.008;4.752;2023-02-18T07:11:02;101869.44;;;11.87;75.35
46534;BME280;32260;52.008;4.752;2023-02-18T07:13:28;101885.47;;;11.74;75.04
46534;BME280;32260;52.008;4.752;2023-02-18T07:15:54;101886.44;;;11.64;74.54
46534;BME280;32260;52.008;4.752;2023-02-18T07:18:21;101868.63;;;11.77;74.62
46534;BME280;32260;52.008;4.752;2023-02-18T07:20:47;101874.75;;;11.84;74.39
46534;BME280;32260;52.008;4.752;2023-02-18T07:23:13;101874.88;;;11.70;74.05
46534;BME280;32260;52.008;4.752;2023-02-18T07:25:39;101875.91;;;11.53;73.37
46534;BME280;32260;52.008;4.752;2023-02-18T07:28:05;101861.56;;;11.76;73.76
46534;BME280;32260;52.008;4.752;2023-02-18T07:30:31;101877.53;;;11.73;73.56
46534;BME280;32260;52.008;4.752;2023-02-18T07:32:58;101861.59;;;11.70;73.33
46534;BME280;32260;52.008;4.752;2023-02-18T07:35:24;101858.09;;;11.68;73.06
46534;BME280;32260;52.008;4.752;2023-02-18T07:37:50;101852.88;;;11.55;72.17
46534;BME280;32260;52.008;4.752;2023-02-18T07:40:19;101877.63;;;11.57;72.24
46534;BME280;32260;52.008;4.752;2023-02-18T07:42:46;101866.94;;;11.65;72.54
46534;BME280;32260;52.008;4.752;2023-02-18T07:45:15;101862.50;;;11.67;72.30
46534;BME280;32260;52.008;4.752;2023-02-18T07:47:41;101868.78;;;11.61;71.70
46534;BME280;32260;52.008;4.752;2023-02-18T07:50:08;101863.41;;;11.64;71.66
46534;BME280;32260;52.008;4.752;2023-02-18T07:52:35;101865.16;;;11.70;71.15
46534;BME280;32260;52.008;4.752;2023-02-18T07:55:01;101872.31;;;11.60;70.40
46534;BME280;32260;52.008;4.752;2023-02-18T07:57:27;101876.66;;;11.69;69.78
46534;BME280;32260;52.008;4.752;2023-02-18T07:59:53;101881.09;;;11.67;69.83
46534;BME280;32260;52.008;4.752;2023-02-18T08:02:21;101888.13;;;11.73;69.72
46534;BME280;32260;52.008;4.752;2023-02-18T08:04:48;101882.84;;;11.70;70.24
46534;BME280;32260;52.008;4.752;2023-02-18T08:07:16;101902.34;;;11.65;70.15
46534;BME280;32260;52.008;4.752;2023-02-18T08:09:43;101893.47;;;11.68;70.21
46534;BME280;32260;52.008;4.752;2023-02-18T08:12:09;101877.53;;;11.70;70.13
46534;BME280;32260;52.008;4.752;2023-02-18T08:14:35;101882.94;;;11.60;70.17
46534;BME280;32260;52.008;4.752;2023-02-18T08:17:01;101886.47;;;11.56;69.40
46534;BME280;32260;52.008;4.752;2023-02-18T08:19:27;101877.56;;;11.63;69.82
46534;BME280;32260;52.008;4.752;2023-02-18T08:21:54;101883.81;;;11.59;69.30
46534;BME280;32260;52.008;4.752;2023-02-18T08:24:20;101873.16;;;11.65;69.44
46534;BME280;32260;52.008;4.752;2023-02-18T08:26:46;101874.09;;;11.58;69.60
46534;BME280;32260;52.008;4.752;2023-02-18T08:29:12;101890.97;;;11.48;70.88
46534;BME280;32260;52.008;4.752;2023-02-18T08:31:38;101892.69;;;11.54;71.05
46534;BME280;32260;52.008;4.752;2023-02-18T08:34:04;101897.16;;;11.44;71.78
46534;BME280;32260;52.008;4.752;2023-02-18T08:36:30;101907.78;;;11.47;72.05
46534;BME280;32260;52.008;4.752;2023-02-18T08:38:57;101899.91;;;11.38;71.96
46534;BME280;32260;52.008;4.752;2023-02-18T08:41:23;101874.25;;;11.33;72.42
46534;BME280;32260;52.008;4.752;2023-02-18T08:43:49;101879.53;;;11.40;72.35
46534;BME280;32260;52.008;4.752;2023-02-18T08:46:16;101888.41;;;11.32;72.29
46534;BME280;32260;52.008;4.752;2023-02-18T08:48:43;101881.25;;;11.47;71.72
46534;BME280;32260;52.008;4.752;2023-02-18T08:51:15;101890.94;;;11.53;71.87
46534;BME280;32260;52.008;4.752;2023-02-18T08:53:42;101889.22;;;11.42;71.36
46534;BME280;32260;52.008;4.752;2023-02-18T08:56:09;101898.94;;;11.48;71.09
46534;BME280;32260;52.008;4.752;2023-02-18T08:58:36;101899.78;;;11.50;71.15
46534;BME280;32260;52.008;4.752;2023-02-18T09:01:04;101921.00;;;11.53;70.07
46534;BME280;32260;52.008;4.752;2023-02-18T09:03:31;101890.84;;;11.63;69.85
46534;BME280;32260;52.008;4.752;2023-02-18T09:05:59;101897.09;;;11.55;69.87
46534;BME280;32260;52.008;4.752;2023-02-18T09:08:26;101897.88;;;11.71;69.94
46534;BME280;32260;52.008;4.752;2023-02-18T09:10:56;101916.50;;;11.64;69.41
46534;BME280;32260;52.008;4.752;2023-02-18T09:13:23;101915.56;;;11.73;69.82
46534;BME280;32260;52.008;4.752;2023-02-18T09:15:59;101923.53;;;11.72;69.52
46534;BME280;32260;52.008;4.752;2023-02-18T09:18:27;101936.84;;;11.65;69.42
46534;BME280;32260;52.008;4.752;2023-02-18T09:20:56;101919.97;;;11.76;69.19
46534;BME280;32260;52.008;4.752;2023-02-18T09:23:23;101934.13;;;11.75;68.74
46534;BME280;32260;52.008;4.752;2023-02-18T09:25:49;101925.22;;;11.82;68.60
46534;BME280;32260;52.008;4.752;2023-02-18T09:28:15;101923.41;;;11.87;69.13
46534;BME280;32260;52.008;4.752;2023-02-18T09:30:41;101918.09;;;11.90;68.89
46534;BME280;32260;52.008;4.752;2023-02-18T09:33:07;101928.66;;;11.93;69.16
46534;BME280;32260;52.008;4.752;2023-02-18T09:35:38;101930.44;;;11.94;69.15
46534;BME280;32260;52.008;4.752;2023-02-18T09:38:05;101933.13;;;11.91;68.91
46534;BME280;32260;52.008;4.752;2023-02-18T09:40:34;101925.97;;;12.01;69.35
46534;BME280;32260;52.008;4.752;2023-02-18T09:43:02;101938.44;;;11.91;69.39
46534;BME280;32260;52.008;4.752;2023-02-18T09:45:28;101925.16;;;11.97;68.88
46534;BME280;32260;52.008;4.752;2023-02-18T09:47:55;101945.50;;;11.95;68.86
46534;BME280;32260;52.008;4.752;2023-02-18T09:50:26;101942.78;;;12.05;68.81
46534;BME280;32260;52.008;4.752;2023-02-18T09:52:54;101952.50;;;12.07;68.86
46534;BME280;32260;52.008;4.752;2023-02-18T09:55:27;101942.66;;;12.17;69.01
46534;BME280;32260;52.008;4.752;2023-02-18T09:58:01;101956.88;;;12.13;68.16
46534;BME280;32260;52.008;4.752;2023-02-18T10:00:46;101959.53;;;12.14;68.40
46534;BME280;32260;52.008;4.752;2023-02-18T10:03:19;101954.19;;;12.19;68.29
46534;BME280;32260;52.008;4.752;2023-02-18T10:06:07;101948.81;;;12.22;68.15
46534;BME280;32260;52.008;4.752;2023-02-18T10:08:39;101974.50;;;12.26;68.05
46534;BME280;32260;52.008;4.752;2023-02-18T10:11:13;101942.50;;;12.36;68.29
46534;BME280;32260;52.008;4.752;2023-02-18T10:13:42;101947.81;;;12.39;68.38
46534;BME280;32260;52.008;4.752;2023-02-18T10:16:08;101972.78;;;12.19;68.13
46534;BME280;32260;52.008;4.752;2023-02-18T10:18:42;101955.00;;;12.27;68.22
46534;BME280;32260;52.008;4.752;2023-02-18T10:21:13;101960.31;;;12.27;68.14
46534;BME280;32260;52.008;4.752;2023-02-18T10:23:47;101973.56;;;12.30;68.09
46534;BME280;32260;52.008;4.752;2023-02-18T10:26:17;101964.72;;;12.30;68.30
46534;BME280;32260;52.008;4.752;2023-02-18T10:28:44;101969.00;;;12.45;68.50
46534;BME280;32260;52.008;4.752;2023-02-18T10:31:17;101959.16;;;12.55;68.72
46534;BME280;32260;52.008;4.752;2023-02-18T10:36:58;101973.13;;;12.74;67.92
46534;BME280;32260;52.008;4.752;2023-02-18T10:39:43;101975.81;;;12.71;67.93
46534;BME280;32260;52.008;4.752;2023-02-18T10:45:17;101991.06;;;12.55;68.56
46534;BME280;32260;52.008;4.752;2023-02-18T10:49:32;101998.09;;;12.59;67.85
46534;BME280;32260;52.008;4.752;2023-02-18T10:50:44;101988.34;;;12.59;68.21
46534;BME280;32260;52.008;4.752;2023-02-18T10:53:18;101974.09;;;12.67;68.02
46534;BME280;32260;52.008;4.752;2023-02-18T10:55:47;101971.44;;;12.67;67.62
46534;BME280;32260;52.008;4.752;2023-02-18T10:58:35;101984.66;;;12.73;68.06
46534;BME280;32260;52.008;4.752;2023-02-18T11:01:14;101989.16;;;12.68;67.68
46534;BME280;32260;52.008;4.752;2023-02-18T11:07:15;101972.19;;;12.78;67.44
46534;BME280;32260;52.008;4.752;2023-02-18T11:10:08;102019.06;;;12.88;67.62
46534;BME280;32260;52.008;4.752;2023-02-18T11:17:55;101997.72;;;12.96;67.50
46534;BME280;32260;52.008;4.752;2023-02-18T11:25:57;101981.81;;;12.88;67.29
46534;BME280;32260;52.008;4.752;2023-02-18T11:31:23;101983.56;;;12.91;67.09
46534;BME280;32260;52.008;4.752;2023-02-18T11:33:55;102001.31;;;12.90;67.01
46534;BME280;32260;52.008;4.752;2023-02-18T11:36:32;101979.09;;;12.94;67.19
46534;BME280;32260;52.008;4.752;2023-02-18T11:39:02;101973.59;;;13.10;67.17
46534;BME280;32260;52.008;4.752;2023-02-18T11:41:40;102014.44;;;13.06;67.02
46534;BME280;32260;52.008;4.752;2023-02-18T11:44:21;101996.91;;;12.88;67.28
46534;BME280;32260;52.008;4.752;2023-02-18T11:50:14;101984.22;;;13.11;66.99
46534;BME280;32260;52.008;4.752;2023-02-18T11:52:50;101985.16;;;13.06;67.34
46534;BME280;32260;52.008;4.752;2023-02-18T11:58:01;101975.53;;;12.99;67.35
46534;BME280;32260;52.008;4.752;2023-02-18T12:00:38;101976.22;;;13.13;66.45
46534;BME280;32260;52.008;4.752;2023-02-18T12:06:01;101969.00;;;13.23;67.20
46534;BME280;32260;52.008;4.752;2023-02-18T12:08:47;101967.25;;;13.20;66.41
46534;BME280;32260;52.008;4.752;2023-02-18T12:11:49;101984.84;;;13.34;66.97
46534;BME280;32260;52.008;4.752;2023-02-18T12:14:07;101967.06;;;13.34;66.31
46534;BME280;32260;52.008;4.752;2023-02-18T12:17:48;101955.34;;;13.49;66.29
46534;BME280;32260;52.008;4.752;2023-02-18T12:20:53;101981.97;;;13.51;65.33
46534;BME280;32260;52.008;4.752;2023-02-18T12:22:44;101959.63;;;13.61;65.63
46534;BME280;32260;52.008;4.752;2023-02-18T12:27:56;101973.78;;;13.65;65.71
46534;BME280;32260;52.008;4.752;2023-02-18T12:34:59;101966.13;;;13.99;64.46
46534;BME280;32260;52.008;4.752;2023-02-18T12:36:57;101970.00;;;13.80;65.34
46534;BME280;32260;52.008;4.752;2023-02-18T12:40:00;101972.78;;;13.72;65.43
46534;BME280;32260;52.008;4.752;2023-02-18T12:57:08;101968.41;;;14.22;64.12
46534;BME280;32260;52.008;4.752;2023-02-18T13:00:22;101956.81;;;14.25;64.13
46534;BME280;32260;52.008;4.752;2023-02-18T13:02:58;101958.72;;;14.18;63.70
46534;BME280;32260;52.008;4.752;2023-02-18T13:13:36;101975.06;;;13.97;64.57
46534;BME280;32260;52.008;4.752;2023-02-18T13:16:12;101975.81;;;14.05;64.19
46534;BME280;32260;52.008;4.752;2023-02-18T13:18:44;101965.38;;;13.93;64.59
46534;BME280;32260;52.008;4.752;2023-02-18T13:21:13;101968.53;;;14.16;63.98
46534;BME280;32260;52.008;4.752;2023-02-18T13:26:28;101972.41;;;13.97;64.33
46534;BME280;32260;52.008;4.752;2023-02-18T13:29:24;101965.09;;;14.08;64.28
46534;BME280;32260;52.008;4.752;2023-02-18T13:37:43;101963.09;;;14.22;64.09
46534;BME280;32260;52.008;4.752;2023-02-18T13:40:21;101982.72;;;14.18;63.82
46534;BME280;32260;52.008;4.752;2023-02-18T13:42:52;101989.91;;;14.13;64.02
46534;BME280;32260;52.008;4.752;2023-02-18T13:45:29;101977.31;;;14.21;63.57
46534;BME280;32260;52.008;4.752;2023-02-18T13:47:56;101972.78;;;14.28;63.89
46534;BME280;32260;52.008;4.752;2023-02-18T13:53:14;101984.22;;;14.35;63.71
46534;BME280;32260;52.008;4.752;2023-02-18T13:58:33;101983.59;;;14.19;64.12
46534;BME280;32260;52.008;4.752;2023-02-18T14:11:54;101982.19;;;14.49;63.23
46534;BME280;32260;52.008;4.752;2023-02-18T14:27:43;101981.50;;;14.36;63.97
46534;BME280;32260;52.008;4.752;2023-02-18T14:30:28;101966.81;;;14.62;63.44
46534;BME280;32260;52.008;4.752;2023-02-18T14:32:59;101981.06;;;14.61;63.13
46534;BME280;32260;52.008;4.752;2023-02-18T14:35:48;101979.94;;;14.76;62.90
46534;BME280;32260;52.008;4.752;2023-02-18T14:42:11;101981.91;;;14.65;62.65
46534;BME280;32260;52.008;4.752;2023-02-18T14:43:52;101983.69;;;14.63;62.55
46534;BME280;32260;52.008;4.752;2023-02-18T14:46:39;101985.66;;;14.54;62.71
46534;BME280;32260;52.008;4.752;2023-02-18T14:55:24;101989.72;;;14.24;63.50
46534;BME280;32260;52.008;4.752;2023-02-18T14:57:56;102008.50;;;14.16;63.59
46534;BME280;32260;52.008;4.752;2023-02-18T15:00:26;101990.97;;;14.01;63.78
46534;BME280;32260;52.008;4.752;2023-02-18T15:02:57;101995.31;;;14.08;63.94
46534;BME280;32260;52.008;4.752;2023-02-18T15:05:30;101995.25;;;14.13;63.81
46534;BME280;32260;52.008;4.752;2023-02-18T15:16:00;102035.41;;;14.01;64.28
46534;BME280;32260;52.008;4.752;2023-02-18T15:21:07;101993.38;;;13.59;65.32
46534;BME280;32260;52.008;4.752;2023-02-18T15:23:36;101984.97;;;13.88;64.62
46534;BME280;32260;52.008;4.752;2023-02-18T15:26:03;101991.41;;;13.72;65.17
46534;BME280;32260;52.008;4.752;2023-02-18T15:28:32;101996.56;;;13.84;64.62
46534;BME280;32260;52.008;4.752;2023-02-18T15:30:59;101988.72;;;13.75;64.95
46534;BME280;32260;52.008;4.752;2023-02-18T15:33:27;101980.84;;;13.67;65.15
46534;BME280;32260;52.008;4.752;2023-02-18T15:36:05;101980.69;;;13.77;65.44
46534;BME280;32260;52.008;4.752;2023-02-18T15:38:31;101987.78;;;13.78;65.10
46534;BME280;32260;52.008;4.752;2023-02-18T15:40:58;101993.16;;;13.76;65.22
46534;BME280;32260;52.008;4.752;2023-02-18T15:43:25;101979.84;;;13.76;65.53